Arnoldsburg, West Virginia
Current Conditions -  °F | °C
As of 2:54 PM on Thursday 18 Dec 2014 (Local Time) from KCRW Reporting Station
Overcast Overcast  
Wind Chill: 26°   Ceiling: 2500
Heat Index: 32°   Visibility: 10mi
Dew Point: 22°   Wind: 6mph
Humidity: 66%   Direction: 310°NW
Pressure: 30.18"   Gusts: NA
Location:  38.79°N, 81.13°W
Report Text: KCRW 181954Z 31005KT 10SM BKN025 OVC110 00/M06 A3018 RMK AO2 SLP229 T00001056
Loading
Personal Weather Stations






























Interactive Weather Map New forecast layout! Learn more

10-Day Weather Forecast

Advertisements
Track Severe Weather on mobile